createdAt,value
2022-12-17T00:01:28.974Z,49.59
2022-12-17T00:04:27.162Z,49.66
2022-12-17T00:07:26.280Z,49.57
2022-12-17T00:10:12.995Z,49.96
2022-12-17T00:13:04.361Z,50.14
2022-12-17T00:15:57.371Z,49.47
2022-12-17T00:18:46.777Z,49.40
2022-12-17T00:21:39.696Z,49.55
2022-12-17T00:24:36.477Z,49.31
2022-12-17T00:27:31.082Z,49.61
2022-12-17T00:30:17.528Z,49.29
2022-12-17T00:33:09.033Z,49.83
2022-12-17T00:36:06.598Z,49.59
2022-12-17T00:38:56.152Z,49.63
2022-12-17T00:41:49.702Z,49.63
2022-12-17T00:44:50.159Z,49.60
2022-12-17T00:47:39.236Z,49.53
2022-12-17T00:50:28.592Z,49.60
2022-12-17T00:53:17.044Z,49.33
2022-12-17T00:56:21.403Z,49.57
2022-12-17T01:02:09.636Z,49.85
2022-12-17T01:05:01.904Z,49.45
2022-12-17T01:07:52.323Z,50.07
2022-12-17T01:10:48.063Z,50.20
2022-12-17T01:13:36.390Z,50.06
2022-12-17T01:16:32.352Z,50.25
2022-12-17T01:19:24.608Z,50.21
2022-12-17T01:22:10.186Z,50.20
2022-12-17T01:24:57.590Z,50.20
2022-12-17T01:27:47.915Z,50.22
2022-12-17T01:30:36.145Z,50.27
2022-12-17T01:33:34.132Z,50.12
2022-12-17T01:39:40.240Z,50.65
2022-12-17T01:42:34.980Z,50.44
2022-12-17T01:45:27.018Z,50.87
2022-12-17T01:48:22.484Z,50.65
2022-12-17T01:51:13.153Z,50.57
2022-12-17T01:54:11.939Z,50.88
2022-12-17T01:57:01.296Z,50.92
2022-12-17T02:00:06.553Z,51.23
2022-12-17T02:03:14.700Z,50.98
2022-12-17T02:06:22.370Z,51.49
2022-12-17T02:09:22.794Z,51.44
2022-12-17T02:12:26.792Z,51.76
2022-12-17T02:15:22.093Z,51.18
2022-12-17T02:18:14.225Z,51.61
2022-12-17T02:21:03.498Z,51.57
2022-12-17T02:23:58.495Z,51.02
2022-12-17T02:27:10.913Z,51.44
2022-12-17T02:30:01.861Z,51.35
2022-12-17T02:33:03.955Z,51.46
2022-12-17T02:35:54.283Z,51.16
2022-12-17T02:38:53.212Z,51.23
2022-12-17T02:42:00.566Z,51.03
2022-12-17T02:44:49.122Z,51.09
2022-12-17T02:47:38.113Z,51.30
2022-12-17T02:50:26.540Z,50.98
2022-12-17T02:53:12.831Z,51.26
2022-12-17T02:56:04.363Z,51.08
2022-12-17T02:58:55.666Z,51.18
2022-12-17T03:01:44.073Z,51.59
2022-12-17T03:04:34.993Z,51.53
2022-12-17T03:07:25.479Z,51.53
2022-12-17T03:10:14.580Z,51.20
2022-12-17T03:13:13.718Z,51.11
2022-12-17T03:16:26.823Z,51.30
2022-12-17T03:19:19.469Z,51.23
2022-12-17T03:22:11.658Z,51.60
2022-12-17T03:24:57.234Z,51.74
2022-12-17T03:27:55.850Z,51.93
2022-12-17T03:30:45.690Z,51.87
2022-12-17T03:33:45.539Z,51.58
2022-12-17T03:36:35.709Z,51.68
2022-12-17T03:39:28.493Z,51.76
2022-12-17T03:42:17.248Z,51.58
2022-12-17T03:45:07.577Z,51.49
2022-12-17T03:47:55.875Z,51.45
2022-12-17T03:50:45.484Z,51.35
2022-12-17T03:53:32.974Z,51.59
2022-12-17T03:56:18.791Z,52.57
2022-12-17T03:59:04.360Z,52.98
2022-12-17T04:01:53.082Z,53.22
2022-12-17T04:04:39.121Z,53.49
2022-12-17T04:07:29.897Z,54.33
2022-12-17T04:10:15.590Z,55.03
2022-12-17T04:13:03.760Z,55.19
2022-12-17T04:15:49.616Z,54.58
2022-12-17T04:18:35.243Z,55.30
2022-12-17T04:21:30.833Z,55.84
2022-12-17T04:24:16.406Z,55.91
2022-12-17T04:27:02.091Z,56.54
2022-12-17T04:29:47.878Z,57.48
2022-12-17T04:32:38.513Z,58.08
2022-12-17T04:35:30.180Z,58.84
2022-12-17T04:38:18.772Z,59.03
2022-12-17T04:41:04.518Z,59.31
2022-12-17T04:43:50.173Z,60.04
2022-12-17T04:46:36.682Z,59.14
2022-12-17T04:49:22.317Z,59.24
2022-12-17T04:52:17.319Z,59.01
2022-12-17T04:55:15.902Z,59.82
2022-12-17T04:58:01.271Z,59.36
2022-12-17T05:00:51.062Z,59.67
2022-12-17T05:03:37.170Z,59.53
2022-12-17T05:06:23.452Z,59.97
2022-12-17T05:09:09.027Z,60.14
2022-12-17T05:11:54.636Z,59.53
2022-12-17T05:14:40.187Z,59.77
2022-12-17T05:17:25.629Z,59.59
2022-12-17T05:20:11.337Z,60.01
2022-12-17T05:22:56.827Z,59.50
2022-12-17T05:25:42.535Z,59.31
2022-12-17T05:28:28.244Z,59.28
2022-12-17T05:31:17.803Z,59.26
2022-12-17T05:34:03.449Z,59.55
2022-12-17T05:36:49.355Z,59.25
2022-12-17T05:39:35.253Z,58.92
2022-12-17T05:42:20.838Z,58.82
2022-12-17T05:45:06.420Z,59.32
2022-12-17T05:47:51.852Z,59.05
2022-12-17T05:50:37.544Z,58.91
2022-12-17T05:53:24.175Z,59.37
2022-12-17T05:56:09.985Z,58.99
2022-12-17T05:58:56.097Z,59.36
2022-12-17T06:01:42.035Z,59.96
2022-12-17T06:04:28.675Z,59.82
2022-12-17T06:07:17.273Z,58.71
2022-12-17T06:10:02.968Z,59.35
2022-12-17T06:12:51.474Z,59.66
2022-12-17T06:15:37.071Z,59.86
2022-12-17T06:18:22.687Z,59.99
2022-12-17T06:21:07.828Z,60.30
2022-12-17T06:23:53.362Z,60.90
2022-12-17T06:26:39.014Z,59.84
2022-12-17T06:29:24.675Z,60.29
2022-12-17T06:32:10.294Z,60.75
2022-12-17T06:34:55.754Z,61.10
2022-12-17T06:37:41.229Z,60.62
2022-12-17T06:40:26.976Z,60.70
2022-12-17T06:43:15.672Z,60.53
2022-12-17T06:46:01.263Z,60.07
2022-12-17T06:48:48.842Z,60.45
2022-12-17T06:51:34.306Z,60.74
2022-12-17T06:54:20.099Z,60.89
2022-12-17T06:57:05.689Z,61.27
2022-12-17T06:59:51.376Z,61.04
2022-12-17T07:02:40.320Z,61.03
2022-12-17T07:05:28.369Z,61.40
2022-12-17T07:08:20.254Z,61.59
2022-12-17T07:11:11.647Z,61.47
2022-12-17T07:14:00.008Z,61.03
2022-12-17T07:16:45.723Z,61.35
2022-12-17T07:19:31.258Z,61.34
2022-12-17T07:22:21.913Z,61.39
2022-12-17T07:25:13.546Z,61.07
2022-12-17T07:27:59.257Z,61.07
2022-12-17T07:30:52.659Z,61.59
2022-12-17T07:33:42.187Z,61.51
2022-12-17T07:36:39.160Z,61.13
2022-12-17T07:39:30.339Z,61.74
2022-12-17T07:42:16.330Z,61.23
2022-12-17T07:45:02.251Z,61.46
2022-12-17T07:47:51.626Z,61.96
2022-12-17T07:50:40.348Z,62.41
2022-12-17T07:56:34.079Z,62.23
2022-12-17T07:59:23.100Z,62.58
2022-12-17T08:02:12.769Z,62.40
2022-12-17T08:05:01.943Z,62.74
2022-12-17T08:07:51.269Z,62.70
2022-12-17T08:10:40.169Z,62.75
2022-12-17T08:13:37.211Z,62.81
2022-12-17T08:16:28.426Z,62.65
2022-12-17T08:19:14.081Z,62.63
2022-12-17T08:22:16.299Z,62.48
2022-12-17T08:25:05.956Z,63.04
2022-12-17T08:28:01.096Z,62.82
2022-12-17T08:30:50.269Z,62.16
2022-12-17T08:33:39.270Z,61.91
2022-12-17T08:36:33.252Z,62.01
2022-12-17T08:39:24.155Z,61.90
2022-12-17T08:42:12.718Z,61.82
2022-12-17T08:45:00.728Z,61.82
2022-12-17T08:47:51.350Z,62.06
2022-12-17T08:50:55.043Z,61.91
2022-12-17T08:53:51.807Z,62.29
2022-12-17T08:56:39.831Z,61.64
2022-12-17T08:59:30.273Z,61.80
2022-12-17T09:02:19.292Z,62.08
2022-12-17T09:05:08.864Z,61.92
2022-12-17T09:08:13.937Z,62.02
2022-12-17T09:11:03.010Z,61.80
2022-12-17T09:13:55.579Z,61.70
2022-12-17T09:16:52.467Z,61.61
2022-12-17T09:19:44.489Z,61.92
2022-12-17T09:22:33.906Z,61.75
2022-12-17T09:25:19.784Z,62.39
2022-12-17T09:28:05.915Z,62.01
2022-12-17T09:34:02.418Z,61.28
2022-12-17T09:36:51.186Z,60.63
2022-12-17T09:39:45.040Z,60.23
2022-12-17T09:42:38.612Z,59.24
2022-12-17T09:45:35.117Z,59.08
2022-12-17T09:48:32.119Z,59.14
2022-12-17T09:51:23.122Z,58.45
2022-12-17T09:54:10.073Z,58.50
2022-12-17T09:56:57.709Z,58.61
2022-12-17T09:59:50.542Z,58.64
2022-12-17T10:02:56.475Z,58.56
2022-12-17T10:15:33.777Z,52.24
2022-12-17T10:18:31.432Z,51.11
2022-12-17T10:21:32.144Z,50.32
2022-12-17T10:24:30.925Z,50.18
2022-12-17T10:27:16.675Z,49.81
2022-12-17T10:30:21.183Z,49.30
2022-12-17T10:33:27.044Z,48.51
2022-12-17T10:36:15.897Z,47.45
2022-12-17T10:39:01.654Z,46.08
2022-12-17T10:41:54.710Z,46.57
2022-12-17T10:44:58.919Z,47.06
2022-12-17T10:47:50.851Z,47.72
2022-12-17T10:50:46.274Z,47.99
2022-12-17T10:53:46.215Z,48.48
2022-12-17T10:56:46.882Z,49.04
2022-12-17T10:59:53.813Z,49.63
2022-12-17T11:02:47.412Z,50.51
2022-12-17T11:08:55.252Z,51.33
2022-12-17T11:11:45.443Z,51.28
2022-12-17T11:14:38.397Z,51.71
2022-12-17T11:17:36.280Z,52.19
2022-12-17T11:20:39.267Z,52.51
2022-12-17T11:23:36.895Z,52.88
2022-12-17T11:26:38.157Z,52.68
2022-12-17T11:29:30.879Z,53.00
2022-12-17T11:32:41.848Z,53.29
2022-12-17T11:35:39.311Z,52.88
2022-12-17T11:38:44.090Z,53.35
2022-12-17T11:41:47.672Z,53.11
2022-12-17T11:44:51.839Z,52.95
2022-12-17T11:47:46.152Z,53.15
2022-12-17T11:50:39.685Z,53.38
2022-12-17T11:53:41.155Z,53.65
2022-12-17T11:56:35.902Z,53.25
2022-12-17T11:59:49.336Z,53.20
2022-12-17T12:02:48.892Z,53.02
2022-12-17T12:05:41.389Z,52.63
2022-12-17T12:08:28.863Z,53.02
2022-12-17T12:11:31.216Z,52.93
2022-12-17T12:14:31.734Z,52.72
2022-12-17T12:17:26.700Z,52.80
2022-12-17T12:20:19.271Z,52.05
2022-12-17T12:23:10.291Z,52.28
2022-12-17T12:26:28.785Z,52.54
2022-12-17T12:29:17.552Z,52.58
2022-12-17T12:32:09.307Z,53.04
2022-12-17T12:34:59.929Z,52.49
2022-12-17T12:37:53.681Z,52.20
2022-12-17T12:40:59.162Z,52.36
2022-12-17T12:44:06.030Z,52.56
2022-12-17T12:46:51.616Z,52.62
2022-12-17T12:49:44.633Z,52.56
2022-12-17T12:52:46.627Z,52.49
2022-12-17T12:55:41.037Z,52.87
2022-12-17T12:58:46.821Z,52.60
2022-12-17T13:01:34.959Z,52.62
2022-12-17T13:04:42.401Z,52.67
2022-12-17T13:07:22.934Z,52.79
2022-12-17T13:09:55.661Z,52.52
2022-12-17T13:12:31.574Z,52.18
2022-12-17T13:14:59.097Z,52.29
2022-12-17T13:17:36.385Z,52.67
2022-12-17T13:20:23.219Z,52.34
2022-12-17T13:22:57.587Z,52.15
2022-12-17T13:25:28.015Z,52.38
2022-12-17T13:27:55.297Z,52.23
2022-12-17T13:30:30.131Z,52.12
2022-12-17T13:32:57.567Z,51.93
2022-12-17T13:35:49.048Z,51.32
2022-12-17T13:38:37.097Z,51.32
2022-12-17T13:41:14.664Z,51.00
2022-12-17T13:44:09.412Z,50.86
2022-12-17T13:46:50.496Z,51.70
2022-12-17T13:49:35.967Z,51.61
2022-12-17T13:52:16.659Z,51.75
2022-12-17T13:54:43.994Z,51.16
2022-12-17T13:57:14.733Z,51.51
2022-12-17T13:59:42.414Z,52.22
2022-12-17T14:02:27.216Z,52.33
2022-12-17T14:04:55.891Z,52.71
2022-12-17T14:07:26.137Z,52.37
2022-12-17T14:09:56.853Z,52.55
2022-12-17T14:12:26.476Z,52.59
2022-12-17T14:14:55.339Z,52.41
2022-12-17T14:17:24.506Z,52.81
2022-12-17T14:20:02.950Z,50.91
2022-12-17T14:22:37.096Z,49.99
2022-12-17T14:25:05.674Z,48.96
2022-12-17T14:27:36.846Z,48.79
2022-12-17T14:30:20.765Z,49.06
2022-12-17T14:32:54.103Z,48.41
2022-12-17T14:35:26.616Z,48.65
2022-12-17T14:37:54.456Z,50.21
2022-12-17T14:40:22.546Z,49.84
2022-12-17T14:42:53.527Z,50.18
2022-12-17T14:45:23.066Z,49.91
2022-12-17T14:48:02.413Z,49.96
2022-12-17T14:50:32.021Z,50.02
2022-12-17T14:53:04.216Z,49.25
2022-12-17T14:55:34.351Z,49.52
2022-12-17T14:58:23.620Z,48.90
2022-12-17T15:01:05.126Z,48.01
2022-12-17T15:03:46.769Z,48.01
2022-12-17T15:06:25.077Z,48.95
2022-12-17T15:08:59.304Z,49.57
2022-12-17T15:11:36.097Z,49.63
2022-12-17T15:14:09.894Z,48.87
2022-12-17T15:19:27.265Z,49.26
2022-12-17T15:22:09.032Z,49.79
2022-12-17T15:24:53.590Z,50.54
2022-12-17T15:27:44.202Z,50.57
2022-12-17T15:30:18.250Z,51.44
2022-12-17T15:32:47.931Z,52.10
2022-12-17T15:35:16.247Z,52.89
2022-12-17T15:37:44.635Z,52.72
2022-12-17T15:40:15.035Z,53.08
2022-12-17T15:43:06.515Z,53.66
2022-12-17T15:45:36.243Z,53.22
2022-12-17T15:48:08.324Z,54.09
2022-12-17T15:50:39.097Z,54.10
2022-12-17T15:53:10.271Z,54.77
2022-12-17T15:55:38.459Z,54.19
2022-12-17T15:58:06.931Z,54.70
2022-12-17T16:00:37.897Z,54.77
2022-12-17T16:03:06.015Z,54.31
2022-12-17T16:05:37.487Z,55.66
2022-12-17T16:08:05.574Z,55.53
2022-12-17T16:10:40.206Z,55.68
2022-12-17T16:13:10.144Z,55.73
2022-12-17T16:15:40.016Z,55.57
2022-12-17T16:18:09.018Z,55.58
2022-12-17T16:20:44.900Z,55.20
2022-12-17T16:23:12.104Z,55.37
2022-12-17T16:25:40.194Z,56.16
2022-12-17T16:28:15.128Z,55.59
2022-12-17T16:30:45.515Z,55.20
2022-12-17T16:33:22.739Z,55.26
2022-12-17T16:35:53.964Z,55.24
2022-12-17T16:38:32.508Z,55.58
2022-12-17T16:41:07.212Z,55.28
2022-12-17T16:43:34.915Z,55.94
2022-12-17T16:46:11.954Z,55.85
2022-12-17T16:48:42.141Z,55.31
2022-12-17T16:51:28.949Z,55.67
2022-12-17T16:54:00.663Z,55.63
2022-12-17T16:59:41.666Z,55.55
2022-12-17T17:02:18.567Z,55.60
2022-12-17T17:04:50.612Z,55.27
2022-12-17T17:07:21.122Z,55.69
2022-12-17T17:09:53.903Z,55.68
2022-12-17T17:12:21.051Z,55.44
2022-12-17T17:14:50.498Z,55.42
2022-12-17T17:17:20.374Z,57.49
2022-12-17T17:20:07.844Z,56.35
2022-12-17T17:22:40.210Z,56.52
2022-12-17T17:25:07.950Z,56.45
2022-12-17T17:27:35.238Z,56.36
2022-12-17T17:30:12.168Z,56.32
2022-12-17T17:32:48.747Z,57.15
2022-12-17T17:35:17.123Z,56.98
2022-12-17T17:37:56.067Z,56.45
2022-12-17T17:40:27.838Z,56.47
2022-12-17T17:42:57.794Z,56.51
2022-12-17T17:45:25.304Z,56.90
2022-12-17T17:47:52.662Z,57.43
2022-12-17T17:50:24.111Z,57.06
2022-12-17T17:52:52.129Z,56.60
2022-12-17T17:55:19.424Z,56.26
2022-12-17T17:57:50.053Z,56.58
2022-12-17T18:00:22.762Z,57.04
2022-12-17T18:02:54.111Z,56.57
2022-12-17T18:05:25.902Z,56.57
2022-12-17T18:07:55.459Z,56.56
2022-12-17T18:10:24.318Z,56.76
2022-12-17T18:13:12.494Z,57.02
2022-12-17T18:15:53.767Z,57.07
2022-12-17T18:18:30.870Z,57.14
2022-12-17T18:21:07.815Z,57.02
2022-12-17T18:23:42.989Z,57.22
2022-12-17T18:26:10.006Z,57.21
2022-12-17T18:28:38.521Z,57.02
2022-12-17T18:31:08.539Z,57.00
2022-12-17T18:33:37.756Z,57.19
2022-12-17T18:36:18.799Z,57.98
2022-12-17T18:38:46.099Z,57.71
2022-12-17T18:41:33.651Z,57.61
2022-12-17T18:44:02.709Z,57.42
2022-12-17T18:46:30.148Z,57.15
2022-12-17T18:49:03.809Z,56.99
2022-12-17T18:51:30.914Z,57.22
2022-12-17T18:53:59.086Z,57.43
2022-12-17T18:56:59.933Z,57.33
2022-12-17T18:59:24.204Z,57.34
2022-12-17T19:01:57.406Z,57.39
2022-12-17T19:04:29.387Z,57.73
2022-12-17T19:06:59.329Z,57.59
2022-12-17T19:09:37.222Z,57.54
2022-12-17T19:12:08.707Z,57.23
2022-12-17T19:14:38.670Z,57.43
2022-12-17T19:17:06.422Z,57.65
2022-12-17T19:19:39.929Z,57.37
2022-12-17T19:22:09.304Z,57.39
2022-12-17T19:24:36.737Z,57.40
2022-12-17T19:27:04.100Z,57.43
2022-12-17T19:29:34.352Z,57.38
2022-12-17T19:32:11.109Z,57.80
2022-12-17T19:34:39.024Z,57.21
2022-12-17T19:37:11.754Z,57.91
2022-12-17T19:39:43.014Z,57.99
2022-12-17T19:42:37.482Z,57.97
2022-12-17T19:45:11.150Z,58.24
2022-12-17T19:47:38.610Z,58.23
2022-12-17T19:53:03.482Z,58.25
2022-12-17T19:55:35.724Z,58.48
2022-12-17T19:58:06.561Z,58.18
2022-12-17T20:00:37.506Z,57.96
2022-12-17T20:03:07.411Z,58.24
2022-12-17T20:05:37.746Z,58.51
2022-12-17T20:08:07.979Z,58.42
2022-12-17T20:10:38.851Z,58.27
2022-12-17T20:13:10.079Z,58.22
2022-12-17T20:15:52.347Z,58.28
2022-12-17T20:18:34.605Z,58.42
2022-12-17T20:21:13.584Z,58.32
2022-12-17T20:23:47.810Z,58.10
2022-12-17T20:26:27.353Z,58.51
2022-12-17T20:29:03.704Z,58.40
2022-12-17T20:31:45.528Z,58.48
2022-12-17T20:34:20.369Z,58.53
2022-12-17T20:37:04.215Z,58.63
2022-12-17T20:39:34.822Z,58.37
2022-12-17T20:42:11.389Z,58.39
2022-12-17T20:44:53.398Z,58.70
2022-12-17T20:47:33.447Z,58.57
2022-12-17T20:50:10.634Z,58.77
2022-12-17T20:52:55.468Z,59.00
2022-12-17T20:55:31.245Z,59.10
2022-12-17T20:58:12.085Z,59.18
2022-12-17T21:00:46.396Z,59.28
2022-12-17T21:03:16.364Z,58.98
2022-12-17T21:05:50.089Z,59.11
2022-12-17T21:08:21.998Z,58.86
2022-12-17T21:10:58.992Z,59.12
2022-12-17T21:13:29.601Z,59.14
2022-12-17T21:16:01.155Z,58.80
2022-12-17T21:18:32.195Z,58.82
2022-12-17T21:21:01.116Z,58.91
2022-12-17T21:23:33.727Z,58.90
2022-12-17T21:26:20.125Z,59.18
2022-12-17T21:28:56.102Z,59.12
2022-12-17T21:32:03.523Z,59.35
2022-12-17T21:34:44.728Z,59.32
2022-12-17T21:37:31.870Z,59.41
2022-12-17T21:40:08.921Z,59.41
2022-12-17T21:43:08.230Z,59.72
2022-12-17T21:45:41.781Z,59.50
2022-12-17T21:48:41.576Z,59.35
2022-12-17T21:51:51.975Z,59.82
2022-12-17T21:54:56.332Z,59.77
2022-12-17T21:57:55.396Z,59.60
2022-12-17T22:00:32.257Z,59.48
2022-12-17T22:03:05.399Z,59.80
2022-12-17T22:05:48.492Z,59.63
2022-12-17T22:08:19.547Z,59.87
2022-12-17T22:10:50.779Z,59.80
2022-12-17T22:13:46.304Z,59.70
2022-12-17T22:16:19.491Z,60.13
2022-12-17T22:18:52.895Z,59.94
2022-12-17T22:21:47.506Z,59.96
2022-12-17T22:24:28.008Z,60.14
2022-12-17T22:27:09.444Z,59.94
2022-12-17T22:29:57.617Z,59.83
2022-12-17T22:32:46.935Z,59.84
2022-12-17T22:36:04.163Z,59.94
2022-12-17T22:41:17.396Z,59.89
2022-12-17T22:44:34.798Z,59.88
2022-12-17T22:44:41.157Z,59.63
2022-12-17T22:47:01.297Z,59.81
2022-12-17T22:49:34.776Z,59.52
2022-12-17T22:52:10.622Z,59.49
2022-12-17T22:54:44.443Z,59.59
2022-12-17T22:57:36.661Z,59.56
2022-12-17T23:00:03.024Z,59.67
2022-12-17T23:02:33.304Z,59.10
2022-12-17T23:05:02.338Z,59.19
2022-12-17T23:07:57.663Z,59.47
2022-12-17T23:10:32.408Z,59.31
2022-12-17T23:12:59.767Z,59.44
2022-12-17T23:15:38.474Z,59.35
2022-12-17T23:18:10.284Z,59.10
2022-12-17T23:20:37.462Z,59.15
2022-12-17T23:23:05.173Z,58.78
2022-12-17T23:25:34.945Z,59.06
2022-12-17T23:28:05.464Z,58.82
2022-12-17T23:30:36.768Z,58.53
2022-12-17T23:33:05.593Z,58.82
2022-12-17T23:35:36.721Z,58.88
2022-12-17T23:38:04.318Z,58.73
2022-12-17T23:40:31.734Z,58.68
2022-12-17T23:43:01.252Z,58.95
2022-12-17T23:45:28.726Z,59.14
2022-12-17T23:47:57.786Z,58.71
2022-12-17T23:50:24.843Z,58.92
2022-12-17T23:52:52.035Z,59.23
2022-12-17T23:55:19.094Z,58.83
2022-12-17T23:57:46.159Z,59.19
